Bronx, NY

1:25 PM EDT on July 24, 2017 (GMT -0400)
Bronx Community College | | Change Station
Active Advisory: Coastal Flood Statement Active Notice: Coastal Flood Statement

Elev 184 ft 40.86 °N, 73.91 °W | Updated 15 seconds ago

Overcast
Overcast
63.7 °F
Feels Like 63.7 °F
N
9.8
Wind Variable Wind from WNW
Gusts 16.0 mph

Today
High -- | Low -- °F
--% Chance of Precip.
Yesterday
High -- | Low -- °F
Precip. -- in
Pressure 29.83 in
Visibility 8.0 miles
Clouds Few 800 ft
Overcast 1200 ft
Dew Point 64 °F
Humidity 100%
Rainfall 0.56 in
Snow Depth Not available.
5:44 AM 8:19 PM
New Moon, 2% visible
METAR KLGA 241651Z 01011KT 8SM -RA FEW008 OVC012 18/16 A2982 RMK AO2 RAE1553B15 SLP099 P0000 T01780161 VISNO R22 SW $
Pressure 29.83 in
Visibility 8.0 miles
Clouds Few 800 ft
Overcast 1200 ft
Dew Point 64 °F
Humidity 100%
Rainfall 0.56 in
Snow Depth Not available.
5:44 AM 8:19 PM
New Moon, 2% visible
METAR KLGA 241651Z 01011KT 8SM -RA FEW008 OVC012 18/16 A2982 RMK AO2 RAE1553B15 SLP099 P0000 T01780161 VISNO R22 SW $

Get Your Daily Forecast Email!

Thanks for signing up!

Be on the lookout for a verification email in your inbox.

You'll start receiving severe weather alerts in your inbox..

×

10-Day Weather Forecast

Almanac

Astronomy

Jul. 24, 2017 Rise Set
Actual Time
Civil Twilight
Nautical Twilight
Astronomical Twilight
Moon
Length of Visible Light
Length of Day
Tomorrow will be .
, % of the Moon is Illuminated

Today's Extremes

State Highs State Lows

Community

WunderPhotos

Category 6

Welcome to Category 6. This is the collective home for Weather Underground's featured writeups by Dr. Jeff Masters (right), Bob Henson (left), Chris Burt, and other regular contributors.

Nearby

Air Quality

  Air Quality AQ Index Pollutant
Not available.

Snow Depth

Station Depth Elevation

Earthquake Activity

City Distance Mag. Time & Date
Minimum magnitude displayed is 2.5.

Coastal Water Temperatures

Place Temperature

Stations

Nearby Weather Stations

Station Location Temp. Windchill Dew Point Humidity Wind Precip. Elev Updated Type
                   

Watches & Warnings

Coastal Flood Statement
Issued: 12:02 PM EDT Jul. 24, 2017 – National Weather Service

... Localized minor coastal flooding early this afternoon...

* location... coastlines along western Long Island Sound.

* Timing... around the time of high tide early this afternoon.

* Tidal departure... around 1 to 1 1/2 ft above astronomical tides.

* Impacts... localized minor coastal flooding is possible.